Time;durP1;ratioP1;P1;durP2;ratioP2;P2;SDS_P1;SDS_P2;PMS_P1;PMS_P2;Temp;Humidity;BMP_temperature;BMP_pressure;BME280_temperature;BME280_humidity;BME280_pressure;Samples;Min_cycle;Max_cycle;Signal;HPM_P1;HPM_P2
2023/09/17 00:00:09;;;;;;;0.50;0.30;;;20.00;99.90;;;;;;5037805;28;20447;-83
2023/09/17 00:02:37;;;;;;;0.50;0.30;;;20.00;99.90;;;;;;5037820;28;20866;-82
2023/09/17 00:05:04;;;;;;;0.50;0.37;;;20.00;99.90;;;;;;5037105;28;20439;-82
2023/09/17 00:07:31;;;;;;;0.60;0.60;;;20.10;99.90;;;;;;5037146;28;20445;-81
2023/09/17 00:09:59;;;;;;;0.50;0.30;;;20.00;99.90;;;;;;5037683;28;20438;-81
2023/09/17 00:12:26;;;;;;;0.50;0.30;;;20.10;99.90;;;;;;5038121;28;20482;-82
2023/09/17 00:14:53;;;;;;;0.50;0.30;;;20.10;99.90;;;;;;5036938;28;20449;-82
2023/09/17 00:17:20;;;;;;;0.50;0.30;;;20.10;99.90;;;;;;5037463;28;20466;-83
2023/09/17 00:19:47;;;;;;;0.50;0.40;;;20.10;99.90;;;;;;5037568;28;20864;-81
2023/09/17 00:22:14;;;;;;;0.50;0.30;;;20.10;99.90;;;;;;5037224;28;20468;-82
2023/09/17 00:24:41;;;;;;;0.50;0.30;;;20.10;99.90;;;;;;5036648;28;20552;-82
2023/09/17 00:27:09;;;;;;;0.50;0.30;;;20.10;99.90;;;;;;5036960;28;20527;-81
2023/09/17 00:29:36;;;;;;;0.50;0.30;;;20.10;99.90;;;;;;5036632;28;20531;-82
2023/09/17 00:32:03;;;;;;;0.50;0.30;;;20.10;99.90;;;;;;5036802;28;20474;-83
2023/09/17 00:34:30;;;;;;;0.50;0.30;;;20.10;99.90;;;;;;5036861;28;20450;-81
2023/09/17 00:36:57;;;;;;;0.50;0.30;;;20.10;99.90;;;;;;5037084;28;20449;-82
2023/09/17 00:39:24;;;;;;;0.50;0.30;;;20.10;99.90;;;;;;5037125;28;20434;-81
2023/09/17 00:41:52;;;;;;;0.50;0.30;;;20.00;99.90;;;;;;5036910;28;20447;-80
2023/09/17 00:44:20;;;;;;;0.50;0.30;;;20.00;99.90;;;;;;5036379;28;20454;-83
2023/09/17 00:46:47;;;;;;;0.50;0.50;;;20.00;99.90;;;;;;5036161;28;20442;-82
2023/09/17 00:49:14;;;;;;;0.50;0.30;;;20.00;99.90;;;;;;5036126;28;20443;-81
2023/09/17 00:51:41;;;;;;;0.50;0.40;;;20.00;99.90;;;;;;5036108;28;20481;-79
2023/09/17 00:54:09;;;;;;;0.50;0.30;;;19.90;99.90;;;;;;5035749;28;20439;-82
2023/09/17 00:56:36;;;;;;;0.50;0.30;;;19.90;99.90;;;;;;5036050;28;20450;-82
2023/09/17 00:59:06;;;;;;;0.50;0.30;;;19.80;99.90;;;;;;5036846;28;20492;-81
2023/09/17 01:01:34;;;;;;;0.50;0.30;;;19.80;99.90;;;;;;5036475;28;20459;-82
2023/09/17 01:04:01;;;;;;;0.50;0.30;;;19.60;99.90;;;;;;5035978;28;20454;-81
2023/09/17 01:06:29;;;;;;;0.50;0.30;;;19.60;99.90;;;;;;5036315;28;21003;-81
2023/09/17 01:08:56;;;;;;;0.50;0.30;;;19.50;99.90;;;;;;5036471;28;20439;-82
2023/09/17 01:11:24;;;;;;;0.50;0.40;;;19.50;99.90;;;;;;5034533;28;20495;-82
2023/09/17 01:14:07;;;;;;;0.50;0.30;;;19.50;99.90;;;;;;5033740;28;20457;-81
2023/09/17 01:16:35;;;;;;;0.50;0.40;;;19.50;99.90;;;;;;5034259;28;20469;-81
2023/09/17 01:19:03;;;;;;;0.50;0.40;;;19.40;99.90;;;;;;5033716;28;20449;-79
2023/09/17 01:21:37;;;;;;;0.50;0.40;;;19.30;99.90;;;;;;5033701;28;20783;-82
2023/09/17 01:24:21;;;;;;;0.50;0.30;;;19.30;99.90;;;;;;5033442;28;20502;-81
2023/09/17 01:27:00;;;;;;;0.50;0.40;;;19.20;99.90;;;;;;5033465;28;20944;-81
2023/09/17 01:29:32;;;;;;;0.50;0.40;;;19.10;99.90;;;;;;5033645;28;20439;-81
2023/09/17 01:31:58;;;;;;;0.50;0.30;;;19.10;99.90;;;;;;5034063;28;20484;-81
2023/09/17 01:34:25;;;;;;;0.50;0.30;;;19.00;99.90;;;;;;5033582;28;20469;-81
2023/09/17 01:36:55;;;;;;;0.50;0.33;;;19.00;99.90;;;;;;5033973;28;20469;-82
2023/09/17 01:39:27;;;;;;;0.50;0.30;;;19.00;99.90;;;;;;5033893;28;20441;-81
2023/09/17 01:41:58;;;;;;;0.50;0.40;;;19.00;99.90;;;;;;5033387;28;20461;-81
2023/09/17 01:44:26;;;;;;;0.50;0.30;;;18.90;99.90;;;;;;5033037;28;20444;-81
2023/09/17 01:46:53;;;;;;;0.50;0.30;;;18.90;99.90;;;;;;5032973;28;20441;-81
2023/09/17 01:49:21;;;;;;;0.50;0.30;;;18.80;99.90;;;;;;5032889;28;20451;-81
2023/09/17 01:51:48;;;;;;;0.50;0.40;;;18.80;99.90;;;;;;5033452;28;20491;-81
2023/09/17 01:54:15;;;;;;;0.50;0.40;;;18.80;99.90;;;;;;5032715;28;20944;-81
2023/09/17 01:56:43;;;;;;;0.50;0.30;;;18.80;99.90;;;;;;5033059;28;20453;-82
2023/09/17 01:59:12;;;;;;;0.50;0.40;;;18.70;99.90;;;;;;5033283;28;20442;-81
2023/09/17 02:01:38;;;;;;;0.50;0.30;;;18.70;99.90;;;;;;5032760;28;21041;-78
2023/09/17 02:04:05;;;;;;;1.70;1.60;;;18.70;99.90;;;;;;5032835;28;20667;-81
2023/09/17 02:06:32;;;;;;;0.50;0.30;;;18.70;99.90;;;;;;5033273;28;20553;-82
2023/09/17 02:08:59;;;;;;;0.50;0.37;;;18.70;99.90;;;;;;5033634;28;20525;-81
2023/09/17 02:11:26;;;;;;;0.50;0.30;;;18.60;99.90;;;;;;5033094;28;20481;-81
2023/09/17 02:13:52;;;;;;;0.50;0.40;;;18.60;99.90;;;;;;5034002;28;20457;-82
2023/09/17 02:16:21;;;;;;;0.50;0.30;;;18.60;99.90;;;;;;5034757;28;20928;-80
2023/09/17 02:18:50;;;;;;;0.67;0.67;;;18.50;99.90;;;;;;5033721;28;21022;-80
2023/09/17 02:21:17;;;;;;;0.50;0.30;;;18.50;99.90;;;;;;5033761;28;20488;-79
2023/09/17 02:23:45;;;;;;;2.10;2.00;;;18.60;99.90;;;;;;5033484;28;20540;-81
2023/09/17 02:26:12;;;;;;;0.50;0.30;;;18.50;99.90;;;;;;5032980;28;20932;-79
2023/09/17 02:28:39;;;;;;;0.50;0.30;;;18.50;99.90;;;;;;5033249;28;20501;-77
2023/09/17 02:31:06;;;;;;;0.50;0.30;;;18.50;99.90;;;;;;5033636;28;20441;-77
2023/09/17 02:33:34;;;;;;;0.50;0.30;;;18.50;99.90;;;;;;5025348;28;20486;-82
2023/09/17 02:36:03;;;;;;;0.50;0.30;;;18.40;99.90;;;;;;5033639;28;20947;-81
2023/09/17 02:38:30;;;;;;;0.50;0.30;;;18.50;99.90;;;;;;5034378;28;20436;-81
2023/09/17 02:40:56;;;;;;;0.50;0.40;;;18.50;99.90;;;;;;5034792;28;20442;-81
2023/09/17 02:43:23;;;;;;;0.50;0.30;;;18.50;99.90;;;;;;5036690;28;20442;-82
2023/09/17 02:45:53;;;;;;;0.50;0.40;;;18.40;99.90;;;;;;5046175;28;20446;-81
2023/09/17 02:48:20;;;;;;;1.13;1.03;;;18.40;99.90;;;;;;5046655;28;20447;-80
2023/09/17 02:50:48;;;;;;;0.50;0.30;;;18.40;99.90;;;;;;5046892;28;20448;-82
2023/09/17 02:53:15;;;;;;;0.53;0.53;;;18.40;99.90;;;;;;5044898;28;20552;-83
2023/09/17 02:55:42;;;;;;;0.50;0.30;;;18.50;99.90;;;;;;5037024;28;20441;-83
2023/09/17 02:58:09;;;;;;;0.50;0.30;;;18.40;99.90;;;;;;5036417;28;20446;-83
2023/09/17 03:00:38;;;;;;;0.50;0.30;;;18.40;99.90;;;;;;5038823;28;20954;-83
2023/09/17 03:03:06;;;;;;;0.50;0.30;;;18.40;99.90;;;;;;5040306;28;20951;-82
2023/09/17 03:05:33;;;;;;;0.50;0.30;;;18.30;99.90;;;;;;5039392;28;20452;-82
2023/09/17 03:08:01;;;;;;;0.50;0.30;;;18.40;99.90;;;;;;5039594;28;20443;-84
2023/09/17 03:10:28;;;;;;;0.50;0.30;;;18.30;99.90;;;;;;5039397;28;20441;-85
2023/09/17 03:12:55;;;;;;;0.50;0.40;;;18.30;99.90;;;;;;5039895;28;20487;-81
2023/09/17 03:15:22;;;;;;;0.50;0.30;;;18.30;99.90;;;;;;5039278;28;20444;-83
2023/09/17 03:17:49;;;;;;;0.50;0.30;;;18.20;99.90;;;;;;5039513;28;20472;-83
2023/09/17 03:20:18;;;;;;;0.50;0.30;;;18.20;99.90;;;;;;5038711;28;20537;-84
2023/09/17 03:22:45;;;;;;;0.50;0.40;;;18.20;99.90;;;;;;5039209;28;20461;-82
2023/09/17 03:25:13;;;;;;;0.50;0.30;;;18.20;99.90;;;;;;5038982;28;20448;-82
2023/09/17 03:27:43;;;;;;;0.50;0.30;;;18.20;99.90;;;;;;5031125;28;20932;-82
2023/09/17 03:30:10;;;;;;;0.50;0.30;;;18.20;99.90;;;;;;5039142;28;20453;-83
2023/09/17 03:32:37;;;;;;;0.50;0.30;;;18.20;99.90;;;;;;5038996;28;20833;-82
2023/09/17 03:35:06;;;;;;;0.50;0.30;;;18.20;99.90;;;;;;5038555;28;20442;-83
2023/09/17 03:37:32;;;;;;;0.50;0.30;;;18.20;99.90;;;;;;5037816;28;20452;-83
2023/09/17 03:40:10;;;;;;;0.50;0.30;;;18.20;99.90;;;;;;5039120;28;20445;-83
2023/09/17 03:42:39;;;;;;;0.50;0.30;;;18.20;99.90;;;;;;5038891;28;20529;-81
2023/09/17 03:45:09;;;;;;;0.50;0.40;;;18.10;99.90;;;;;;5038196;28;20446;-83
2023/09/17 03:47:36;;;;;;;0.50;0.30;;;18.20;99.90;;;;;;5038370;28;20450;-82
2023/09/17 03:50:04;;;;;;;0.50;0.40;;;18.20;99.90;;;;;;5038691;28;20451;-80
2023/09/17 03:52:32;;;;;;;0.50;0.30;;;18.20;99.90;;;;;;5038317;28;20553;-83
2023/09/17 03:54:59;;;;;;;0.50;0.30;;;18.20;99.90;;;;;;5037749;28;20445;-82
2023/09/17 03:57:25;;;;;;;0.50;0.30;;;18.10;99.90;;;;;;5037774;28;20957;-80
2023/09/17 03:59:54;;;;;;;0.50;0.40;;;18.10;99.90;;;;;;5037241;28;20474;-81
2023/09/17 04:02:20;;;;;;;0.50;0.30;;;18.10;99.90;;;;;;5036063;28;20465;-80
2023/09/17 04:04:47;;;;;;;0.50;0.40;;;18.00;99.90;;;;;;5036902;28;20440;-82
2023/09/17 04:07:14;;;;;;;0.50;0.30;;;18.00;99.90;;;;;;5038597;28;20441;-83
2023/09/17 04:09:42;;;;;;;0.50;0.30;;;18.00;99.90;;;;;;5037952;28;20459;-83
2023/09/17 04:12:10;;;;;;;0.50;0.30;;;17.90;99.90;;;;;;5037583;28;20531;-83
2023/09/17 04:14:37;;;;;;;0.50;0.33;;;17.90;99.90;;;;;;5037427;28;20464;-83
2023/09/17 04:17:06;;;;;;;0.50;0.30;;;17.80;99.90;;;;;;5037904;28;20500;-82
2023/09/17 04:19:33;;;;;;;0.50;0.30;;;17.80;99.90;;;;;;5037448;28;20438;-82
2023/09/17 04:22:01;;;;;;;1.13;1.13;;;17.80;99.90;;;;;;5037275;28;20486;-83
2023/09/17 04:24:28;;;;;;;0.50;0.30;;;17.80;99.90;;;;;;5037744;28;20449;-82
2023/09/17 04:26:56;;;;;;;0.50;0.30;;;17.80;99.90;;;;;;5037789;28;20479;-84
2023/09/17 04:29:23;;;;;;;0.50;0.30;;;17.80;99.90;;;;;;5037350;28;20506;-82
2023/09/17 04:31:51;;;;;;;0.50;0.30;;;17.80;99.90;;;;;;5037913;28;20921;-83
2023/09/17 04:34:19;;;;;;;0.50;0.30;;;17.80;99.90;;;;;;5037773;28;20445;-83
2023/09/17 04:36:46;;;;;;;0.50;0.40;;;17.80;99.90;;;;;;5037845;28;20479;-83
2023/09/17 04:39:19;;;;;;;1.20;0.90;;;17.80;99.90;;;;;;5037599;28;20476;-81
2023/09/17 04:41:46;;;;;;;0.50;0.40;;;17.70;99.90;;;;;;5029147;28;20461;-84
2023/09/17 04:44:12;;;;;;;0.50;0.30;;;17.70;99.90;;;;;;5037207;28;20437;-83
2023/09/17 04:46:40;;;;;;;0.50;0.37;;;17.70;99.90;;;;;;5037038;28;20465;-83
2023/09/17 04:49:07;;;;;;;0.50;0.40;;;17.60;99.90;;;;;;5037664;28;20532;-83
2023/09/17 04:51:36;;;;;;;0.50;0.30;;;17.60;99.90;;;;;;5038287;28;20464;-84
2023/09/17 04:54:03;;;;;;;0.50;0.30;;;17.50;99.90;;;;;;5039688;28;20475;-84
2023/09/17 04:56:29;;;;;;;0.50;0.40;;;17.50;99.90;;;;;;5036992;28;20516;-83
2023/09/17 04:58:57;;;;;;;0.50;0.30;;;17.50;99.90;;;;;;5036542;28;20557;-83
2023/09/17 05:01:24;;;;;;;0.50;0.33;;;17.40;99.90;;;;;;5036831;28;20464;-83
2023/09/17 05:03:51;;;;;;;0.50;0.30;;;17.50;99.90;;;;;;5037582;28;20943;-84
2023/09/17 05:06:17;;;;;;;0.50;0.40;;;17.40;99.90;;;;;;5036656;28;20825;-81
2023/09/17 05:08:46;;;;;;;0.50;0.40;;;17.40;99.90;;;;;;5037120;28;20797;-83
2023/09/17 05:11:12;;;;;;;0.50;0.30;;;17.30;99.90;;;;;;5037726;28;20464;-82
2023/09/17 05:13:39;;;;;;;0.50;0.40;;;17.30;99.90;;;;;;5036703;28;20473;-82
2023/09/17 05:16:06;;;;;;;0.50;0.40;;;17.30;99.90;;;;;;5036697;28;20448;-84
2023/09/17 05:18:33;;;;;;;0.50;0.30;;;17.30;99.90;;;;;;5036767;28;20459;-83
2023/09/17 05:21:00;;;;;;;0.50;0.30;;;17.30;99.90;;;;;;5036670;28;20451;-83
2023/09/17 05:23:26;;;;;;;0.50;0.30;;;17.30;99.90;;;;;;5034505;28;20511;-83
2023/09/17 05:25:56;;;;;;;0.50;0.30;;;17.30;99.90;;;;;;5034942;28;20816;-80
2023/09/17 05:28:23;;;;;;;0.50;0.50;;;17.30;99.90;;;;;;5034747;28;20441;-82
2023/09/17 05:30:50;;;;;;;0.50;0.40;;;17.20;99.90;;;;;;5026609;28;20926;-83
2023/09/17 05:33:17;;;;;;;0.67;0.67;;;17.20;99.90;;;;;;5034521;28;20485;-79
2023/09/17 05:35:44;;;;;;;0.50;0.40;;;17.20;99.90;;;;;;5034705;28;20541;-82
2023/09/17 05:38:10;;;;;;;0.50;0.30;;;17.10;99.90;;;;;;5033857;28;20963;-81
2023/09/17 05:40:37;;;;;;;0.50;0.30;;;17.10;99.90;;;;;;5033938;28;20452;-81
2023/09/17 05:43:05;;;;;;;0.50;0.30;;;17.10;99.90;;;;;;5034514;28;20468;-82
2023/09/17 05:45:32;;;;;;;0.70;0.57;;;17.10;99.90;;;;;;5034845;28;20536;-82
2023/09/17 05:47:59;;;;;;;0.50;0.30;;;17.20;99.90;;;;;;5035368;28;20449;-85
2023/09/17 05:50:26;;;;;;;0.50;0.40;;;17.20;99.90;;;;;;5034740;28;20548;-82
2023/09/17 05:52:53;;;;;;;0.50;0.40;;;17.20;99.90;;;;;;5034382;28;20486;-82
2023/09/17 05:55:19;;;;;;;0.50;0.40;;;17.30;99.90;;;;;;5034782;28;20480;-84
2023/09/17 05:57:46;;;;;;;0.50;0.40;;;17.30;99.90;;;;;;5035753;28;20443;-83
2023/09/17 06:00:16;;;;;;;0.50;0.30;;;17.30;99.90;;;;;;5035134;28;20456;-83
2023/09/17 06:02:43;;;;;;;0.50;0.30;;;17.30;99.90;;;;;;5035199;28;20501;-83
2023/09/17 06:05:10;;;;;;;0.50;0.40;;;17.40;99.90;;;;;;5034835;28;20449;-83
2023/09/17 06:07:37;;;;;;;0.50;0.30;;;17.30;99.90;;;;;;5034356;28;20455;-83
2023/09/17 06:10:05;;;;;;;0.50;0.30;;;17.30;99.90;;;;;;5035364;28;20445;-82
2023/09/17 06:12:32;;;;;;;0.50;0.30;;;17.30;99.90;;;;;;5035410;28;21018;-83
2023/09/17 06:14:59;;;;;;;0.50;0.30;;;17.30;99.90;;;;;;5035300;28;20947;-80
2023/09/17 06:17:27;;;;;;;0.50;0.30;;;17.20;99.90;;;;;;5035518;28;20447;-84
2023/09/17 06:19:54;;;;;;;0.50;0.43;;;17.20;99.90;;;;;;5035753;28;20529;-84
2023/09/17 06:22:20;;;;;;;0.50;0.30;;;17.20;99.90;;;;;;5035651;28;20469;-84
2023/09/17 06:24:47;;;;;;;0.50;0.30;;;17.20;99.90;;;;;;5035221;28;20444;-84
2023/09/17 06:27:14;;;;;;;0.50;0.30;;;17.20;99.90;;;;;;5035288;28;20445;-83
2023/09/17 06:29:41;;;;;;;0.50;0.30;;;17.30;99.90;;;;;;5035911;28;20454;-84
2023/09/17 06:32:08;;;;;;;0.50;0.30;;;17.30;99.90;;;;;;5034980;28;20465;-83
2023/09/17 06:34:36;;;;;;;0.50;0.30;;;17.30;99.90;;;;;;5039548;28;20451;-81
2023/09/17 06:37:04;;;;;;;0.50;0.30;;;17.40;99.90;;;;;;5042134;28;20451;-82
2023/09/17 06:39:31;;;;;;;0.50;0.30;;;17.40;99.90;;;;;;5041911;28;20453;-81
2023/09/17 06:41:58;;;;;;;0.50;0.40;;;17.40;99.90;;;;;;5042347;28;20464;-83
2023/09/17 06:44:24;;;;;;;0.50;0.40;;;17.40;99.90;;;;;;5042307;28;20478;-82
2023/09/17 06:46:51;;;;;;;0.50;0.30;;;17.50;99.90;;;;;;5041917;28;20466;-84
2023/09/17 06:49:18;;;;;;;0.50;0.30;;;17.50;99.90;;;;;;5041596;28;20458;-83
2023/09/17 06:51:47;;;;;;;0.50;0.30;;;17.60;99.90;;;;;;5041587;28;20468;-83
2023/09/17 06:54:14;;;;;;;0.50;0.30;;;17.60;99.90;;;;;;5042322;28;20483;-82
2023/09/17 06:56:40;;;;;;;0.50;0.30;;;17.70;99.90;;;;;;5041429;28;20446;-82
2023/09/17 06:59:07;;;;;;;0.50;0.40;;;17.70;99.90;;;;;;5042405;28;20438;-83
2023/09/17 07:01:35;;;;;;;0.50;0.30;;;17.90;99.90;;;;;;5041327;28;20465;-82
2023/09/17 07:04:02;;;;;;;0.50;0.30;;;18.20;99.90;;;;;;5042325;28;20437;-83
2023/09/17 07:06:28;;;;;;;0.50;0.30;;;18.50;99.90;;;;;;5042473;28;20504;-82
2023/09/17 07:08:57;;;;;;;0.50;0.30;;;18.70;99.90;;;;;;5041221;28;20448;-83
2023/09/17 07:11:24;;;;;;;0.50;0.30;;;18.70;99.90;;;;;;5041897;28;20555;-83
2023/09/17 07:13:51;;;;;;;0.50;0.30;;;18.90;99.90;;;;;;5041509;28;21196;-83
2023/09/17 07:16:19;;;;;;;0.50;0.40;;;19.10;99.90;;;;;;5041152;28;20545;-84
2023/09/17 07:18:46;;;;;;;0.50;0.30;;;19.30;99.90;;;;;;5041480;28;20495;-83
2023/09/17 07:21:13;;;;;;;0.60;0.30;;;19.70;99.90;;;;;;5041028;28;20469;-83
2023/09/17 07:23:40;;;;;;;0.50;0.40;;;19.90;99.90;;;;;;5040360;28;20463;-83
2023/09/17 07:26:09;;;;;;;0.50;0.30;;;20.00;99.90;;;;;;5041314;28;20446;-83
2023/09/17 07:28:36;;;;;;;0.50;0.30;;;20.00;99.90;;;;;;5040547;28;20445;-81
2023/09/17 07:31:04;;;;;;;0.50;0.30;;;19.90;99.90;;;;;;5040765;28;20480;-83
2023/09/17 07:33:31;;;;;;;0.50;0.33;;;20.00;99.90;;;;;;5040406;28;20501;-81
2023/09/17 07:35:58;;;;;;;0.50;0.40;;;20.20;99.90;;;;;;5040934;28;20706;-82
2023/09/17 07:38:25;;;;;;;0.50;0.40;;;20.40;99.90;;;;;;5041167;28;20965;-82
2023/09/17 07:40:51;;;;;;;0.50;0.30;;;20.70;99.90;;;;;;5040758;28;20467;-82
2023/09/17 07:43:20;;;;;;;0.50;0.30;;;20.90;99.90;;;;;;5040464;28;20439;-82
2023/09/17 07:45:46;;;;;;;0.50;0.30;;;21.10;99.90;;;;;;5037418;28;20446;-82
2023/09/17 07:48:13;;;;;;;0.50;0.40;;;21.30;99.90;;;;;;5037007;28;20447;-83
2023/09/17 07:50:40;;;;;;;1.50;1.40;;;21.70;99.90;;;;;;5036801;28;20443;-83
2023/09/17 07:53:07;;;;;;;1.10;1.07;;;22.10;99.90;;;;;;5037406;28;20539;-83
2023/09/17 07:55:34;;;;;;;2.43;2.33;;;23.20;99.90;;;;;;5036930;28;20443;-83
2023/09/17 07:58:01;;;;;;;0.93;0.93;;;24.40;99.90;;;;;;5036573;28;20448;-82
2023/09/17 08:00:29;;;;;;;1.17;0.70;;;25.70;99.90;;;;;;5037029;28;20504;-83
2023/09/17 08:02:56;;;;;;;0.50;0.40;;;26.30;99.90;;;;;;5036954;28;20469;-80
2023/09/17 08:05:25;;;;;;;0.50;0.40;;;27.60;99.90;;;;;;5035865;28;20453;-82
2023/09/17 08:07:51;;;;;;;1.00;0.93;;;27.70;99.90;;;;;;5037649;28;20516;-82
2023/09/17 08:10:18;;;;;;;0.70;0.70;;;28.40;99.90;;;;;;5036263;28;20441;-82
2023/09/17 08:12:45;;;;;;;0.50;0.30;;;29.00;99.90;;;;;;5036309;28;20547;-84
2023/09/17 08:15:13;;;;;;;0.50;0.30;;;29.30;99.90;;;;;;5036725;28;20442;-84
2023/09/17 08:17:43;;;;;;;0.50;0.30;;;29.60;99.90;;;;;;5036642;28;20469;-81
2023/09/17 08:20:11;;;;;;;0.50;0.30;;;29.80;99.90;;;;;;5036675;28;20438;-83
2023/09/17 08:22:38;;;;;;;0.50;0.30;;;30.10;99.90;;;;;;5036823;28;20532;-83
2023/09/17 08:25:08;;;;;;;0.50;0.30;;;30.20;99.90;;;;;;5030317;28;20442;-83
2023/09/17 08:27:35;;;;;;;0.50;0.30;;;30.30;99.90;;;;;;5037622;28;20439;-84
2023/09/17 08:30:03;;;;;;;0.80;0.70;;;30.60;99.90;;;;;;5035963;28;20435;-83
2023/09/17 08:32:31;;;;;;;0.50;0.40;;;30.40;99.90;;;;;;5037036;28;20466;-82
2023/09/17 08:34:59;;;;;;;0.50;0.30;;;29.50;99.90;;;;;;5036079;28;20506;-82
2023/09/17 08:37:26;;;;;;;0.50;0.30;;;28.70;99.90;;;;;;5036449;28;20445;-83
2023/09/17 08:39:53;;;;;;;0.97;0.90;;;28.80;99.90;;;;;;5035695;28;20481;-82
2023/09/17 08:42:21;;;;;;;0.50;0.30;;;28.80;99.90;;;;;;5036229;28;20473;-84
2023/09/17 08:44:50;;;;;;;0.50;0.40;;;29.00;99.90;;;;;;5035803;28;20441;-81
2023/09/17 08:47:17;;;;;;;0.50;0.30;;;29.60;99.90;;;;;;5035891;28;20438;-81
2023/09/17 08:49:44;;;;;;;0.50;0.30;;;29.90;99.90;;;;;;5035826;28;20449;-82
2023/09/17 08:52:14;;;;;;;0.50;0.33;;;29.50;99.90;;;;;;5035287;28;20469;-80
2023/09/17 08:54:43;;;;;;;0.60;0.50;;;29.40;99.90;;;;;;5035082;28;20569;-81
2023/09/17 08:57:13;;;;;;;0.50;0.30;;;29.90;99.90;;;;;;5026521;28;20439;-81
2023/09/17 08:59:45;;;;;;;0.60;0.60;;;30.40;99.90;;;;;;5035747;28;20529;-80
2023/09/17 09:02:22;;;;;;;0.60;0.60;;;31.10;99.90;;;;;;5027886;28;20962;-82
2023/09/17 09:04:50;;;;;;;0.50;0.40;;;31.40;99.90;;;;;;5034273;28;20450;-81
2023/09/17 09:07:21;;;;;;;0.60;0.60;;;30.70;99.90;;;;;;5034980;28;20449;-81
2023/09/17 09:09:49;;;;;;;0.50;0.30;;;30.10;99.90;;;;;;5034393;28;20452;-81
2023/09/17 09:12:17;;;;;;;0.50;0.40;;;29.30;99.90;;;;;;5033962;28;20984;-81
2023/09/17 09:14:45;;;;;;;0.50;0.30;;;29.00;99.90;;;;;;5034076;28;20490;-80
2023/09/17 09:17:12;;;;;;;1.07;1.07;;;30.00;99.90;;;;;;5034580;28;20822;-82
2023/09/17 09:19:40;;;;;;;0.50;0.30;;;30.80;99.90;;;;;;5034720;28;20508;-79
2023/09/17 09:22:07;;;;;;;0.50;0.30;;;31.80;99.90;;;;;;5034196;28;20879;-81
2023/09/17 09:24:45;;;;;;;0.47;0.30;;;32.00;99.90;;;;;;5034339;28;20534;-82
2023/09/17 09:27:13;;;;;;;0.53;0.40;;;31.70;99.90;;;;;;5026531;28;20936;-81
2023/09/17 09:29:42;;;;;;;0.60;0.57;;;30.00;99.90;;;;;;5035070;28;20481;-82
2023/09/17 09:32:10;;;;;;;0.50;0.40;;;28.80;99.90;;;;;;5035014;28;20488;-81
2023/09/17 09:34:37;;;;;;;0.50;0.50;;;27.60;99.90;;;;;;5034022;28;20482;-81
2023/09/17 09:37:06;;;;;;;0.50;0.40;;;27.10;99.90;;;;;;5033229;28;20455;-79
2023/09/17 09:39:34;;;;;;;1.23;1.13;;;26.70;99.90;;;;;;5035506;28;20452;-81
2023/09/17 09:42:04;;;;;;;0.50;0.30;;;26.60;99.90;;;;;;5033382;28;20507;-81
2023/09/17 09:44:32;;;;;;;0.50;0.40;;;27.50;99.90;;;;;;5033392;28;20442;-81
2023/09/17 09:47:00;;;;;;;0.50;0.30;;;28.60;99.90;;;;;;5034272;28;20442;-82
2023/09/17 09:49:27;;;;;;;0.50;0.40;;;29.60;99.90;;;;;;5036617;28;20967;-82
2023/09/17 09:51:55;;;;;;;0.50;0.30;;;30.00;99.90;;;;;;5033718;28;20590;-82
2023/09/17 09:54:21;;;;;;;0.50;0.30;;;30.80;99.90;;;;;;5034979;28;20742;-82
2023/09/17 09:56:48;;;;;;;0.50;0.30;;;31.20;99.90;;;;;;5034279;28;20445;-80
2023/09/17 09:59:17;;;;;;;0.40;0.30;;;31.20;99.90;;;;;;5034086;28;20438;-82
2023/09/17 10:01:45;;;;;;;0.50;0.30;;;30.70;99.90;;;;;;5033988;28;20989;-81
2023/09/17 10:04:12;;;;;;;0.50;0.30;;;30.30;99.90;;;;;;5033829;28;20934;-81
2023/09/17 10:06:40;;;;;;;0.53;0.53;;;29.30;99.90;;;;;;5033461;28;20942;-82
2023/09/17 10:09:10;;;;;;;0.50;0.30;;;28.60;99.90;;;;;;5033651;28;20445;-77
2023/09/17 10:11:38;;;;;;;0.50;0.30;;;28.10;99.90;;;;;;5033959;28;20560;-81
2023/09/17 10:14:06;;;;;;;0.50;0.30;;;27.60;99.90;;;;;;5033379;28;20475;-82
2023/09/17 10:16:36;;;;;;;0.60;0.60;;;27.10;99.90;;;;;;5033477;28;20486;-81
2023/09/17 10:19:04;;;;;;;0.50;0.30;;;27.20;99.90;;;;;;5032769;28;20449;-81
2023/09/17 10:21:33;;;;;;;1.00;0.90;;;27.20;99.90;;;;;;5033022;28;20519;-81
2023/09/17 10:24:01;;;;;;;0.50;0.30;;;27.40;99.90;;;;;;5032967;28;20437;-82
2023/09/17 10:26:32;;;;;;;0.50;0.30;;;28.20;99.90;;;;;;5033709;28;20890;-82
2023/09/17 10:29:01;;;;;;;0.50;0.30;;;29.40;99.90;;;;;;5034124;28;20445;-82
2023/09/17 10:31:29;;;;;;;0.50;0.30;;;30.30;99.90;;;;;;5034059;28;20451;-82
2023/09/17 10:33:59;;;;;;;0.50;0.30;;;31.20;99.90;;;;;;5033380;28;20527;-81
2023/09/17 10:36:28;;;;;;;0.50;0.40;;;31.40;99.90;;;;;;5033467;28;20791;-83
2023/09/17 10:38:58;;;;;;;0.50;0.30;;;31.50;99.90;;;;;;5034928;28;20442;-83
2023/09/17 10:41:28;;;;;;;0.50;0.30;;;31.30;99.90;;;;;;5035521;28;20494;-82
2023/09/17 10:43:57;;;;;;;0.50;0.30;;;31.20;99.90;;;;;;5033125;28;20513;-82
2023/09/17 10:46:24;;;;;;;0.50;0.40;;;31.60;99.90;;;;;;5033719;28;20458;-83
2023/09/17 10:48:53;;;;;;;0.50;0.40;;;32.10;99.90;;;;;;5038052;28;20446;-83
2023/09/17 10:51:22;;;;;;;0.50;0.40;;;31.20;99.90;;;;;;5029657;28;20968;-82
2023/09/17 10:53:48;;;;;;;0.87;0.87;;;30.50;99.90;;;;;;5037792;28;20485;-83
2023/09/17 10:56:16;;;;;;;0.50;0.40;;;29.50;99.90;;;;;;5034096;28;20445;-82
2023/09/17 10:58:45;;;;;;;0.50;0.37;;;28.70;99.90;;;;;;5032947;28;20445;-82
2023/09/17 11:01:15;;;;;;;1.63;1.40;;;28.10;99.90;;;;;;5032908;28;20449;-83
2023/09/17 11:03:45;;;;;;;0.50;0.40;;;27.20;99.90;;;;;;5032816;28;20790;-82
2023/09/17 11:06:16;;;;;;;0.50;0.40;;;27.30;99.90;;;;;;5033157;28;20457;-82
2023/09/17 11:08:47;;;;;;;2.30;1.93;;;26.90;99.90;;;;;;5033517;28;20529;-82
2023/09/17 11:11:15;;;;;;;0.60;0.60;;;26.90;99.90;;;;;;5033319;28;20455;-84
2023/09/17 11:13:46;;;;;;;3.33;3.10;;;27.00;99.90;;;;;;5032767;28;20449;-83
2023/09/17 11:16:14;;;;;;;0.67;0.67;;;27.70;99.90;;;;;;5032776;28;20467;-83
2023/09/17 11:18:41;;;;;;;0.50;0.30;;;28.80;99.90;;;;;;5033595;28;20446;-84
2023/09/17 11:21:12;;;;;;;0.50;0.40;;;29.40;99.90;;;;;;5035071;28;20453;-82
2023/09/17 11:23:43;;;;;;;0.73;0.70;;;29.90;99.90;;;;;;5036842;28;20885;-82
2023/09/17 11:26:14;;;;;;;0.50;0.40;;;30.70;99.90;;;;;;5036434;28;20850;-83
2023/09/17 11:28:41;;;;;;;0.80;0.70;;;31.50;99.90;;;;;;5037274;28;20443;-82
2023/09/17 11:31:13;;;;;;;0.50;0.40;;;32.00;99.90;;;;;;5036685;28;20817;-82
2023/09/17 11:33:40;;;;;;;0.50;0.30;;;32.60;99.90;;;;;;5036567;28;20500;-83
2023/09/17 11:36:07;;;;;;;0.43;0.30;;;33.00;98.30;;;;;;5037435;28;20439;-83
2023/09/17 11:38:34;;;;;;;0.50;0.30;;;33.10;98.50;;;;;;5037702;28;20438;-82
2023/09/17 11:41:09;;;;;;;0.50;0.30;;;33.10;95.10;;;;;;5036894;28;20442;-81
2023/09/17 11:43:45;;;;;;;0.50;0.40;;;32.40;97.50;;;;;;5037226;28;20824;-82
2023/09/17 11:46:13;;;;;;;0.50;0.50;;;32.10;97.20;;;;;;5035805;28;20442;-82
2023/09/17 11:48:41;;;;;;;0.50;0.30;;;32.00;96.10;;;;;;5035537;28;20454;-81
2023/09/17 11:51:21;;;;;;;0.50;0.30;;;31.50;97.70;;;;;;5036430;28;20443;-83
2023/09/17 11:53:54;;;;;;;0.50;0.40;;;31.50;98.20;;;;;;5036090;28;20442;-84
2023/09/17 11:56:21;;;;;;;0.50;0.30;;;30.80;98.30;;;;;;5036362;28;20892;-83
2023/09/17 11:59:01;;;;;;;0.50;0.30;;;29.80;99.90;;;;;;5036251;28;20439;-82
2023/09/17 12:01:29;;;;;;;0.50;0.30;;;30.20;99.90;;;;;;5028708;28;21019;-82
2023/09/17 12:03:57;;;;;;;0.50;0.30;;;31.20;99.90;;;;;;5035474;28;20492;-82
2023/09/17 12:06:25;;;;;;;0.50;0.50;;;31.50;99.90;;;;;;5036065;28;20438;-82
2023/09/17 12:08:52;;;;;;;0.60;0.60;;;31.50;99.90;;;;;;5036023;28;20435;-82
2023/09/17 12:11:22;;;;;;;0.50;0.30;;;31.60;99.80;;;;;;5036615;28;20462;-82
2023/09/17 12:13:53;;;;;;;0.50;0.30;;;32.00;99.90;;;;;;5039467;28;20443;-82
2023/09/17 12:16:23;;;;;;;0.50;0.30;;;32.30;99.50;;;;;;5035625;28;20450;-82
2023/09/17 12:18:51;;;;;;;0.50;0.30;;;32.40;99.80;;;;;;5036239;28;20437;-82
2023/09/17 12:21:18;;;;;;;0.50;0.30;;;32.90;99.90;;;;;;5035892;28;20844;-84
2023/09/17 12:23:54;;;;;;;0.70;0.70;;;33.20;96.00;;;;;;5036080;28;20933;-82
2023/09/17 12:26:26;;;;;;;0.50;0.30;;;33.80;96.20;;;;;;5036452;28;20877;-82
2023/09/17 12:28:54;;;;;;;0.40;0.30;;;34.10;92.70;;;;;;5035747;28;20975;-83
2023/09/17 12:31:21;;;;;;;0.40;0.30;;;34.10;91.80;;;;;;5036199;28;20973;-82
2023/09/17 12:33:48;;;;;;;0.40;0.30;;;34.60;93.90;;;;;;5035846;28;21167;-82
2023/09/17 12:36:16;;;;;;;0.50;0.40;;;34.50;91.00;;;;;;5035983;28;20482;-82
2023/09/17 12:38:43;;;;;;;0.50;0.30;;;33.20;90.50;;;;;;5035224;28;20473;-82
2023/09/17 12:41:11;;;;;;;0.50;0.37;;;32.60;92.80;;;;;;5035386;28;20446;-83
2023/09/17 12:43:37;;;;;;;0.50;0.30;;;33.30;93.90;;;;;;5035960;28;20451;-82
2023/09/17 12:46:06;;;;;;;0.50;0.30;;;33.50;91.60;;;;;;5034986;28;20445;-81
2023/09/17 12:48:34;;;;;;;0.50;0.30;;;32.90;92.80;;;;;;5037129;28;20818;-83
2023/09/17 12:51:01;;;;;;;0.50;0.30;;;32.90;93.20;;;;;;5037620;28;20446;-82